sensor_id;sensor_type;location;lat;lon;timestamp;P1;durP1;ratioP1;P2;durP2;ratioP2
69401;SDS011;56589;51.992;5.924;2023-08-07T00:01:04;8.02;;;1.35;;
69401;SDS011;56589;51.992;5.924;2023-08-07T00:03:32;9.77;;;1.50;;
69401;SDS011;56589;51.992;5.924;2023-08-07T00:05:58;6.13;;;1.08;;
69401;SDS011;56589;51.992;5.924;2023-08-07T00:08:24;5.10;;;0.90;;
69401;SDS011;56589;51.992;5.924;2023-08-07T00:10:49;7.57;;;1.45;;
69401;SDS011;56589;51.992;5.924;2023-08-07T00:13:15;3.92;;;0.90;;
69401;SDS011;56589;51.992;5.924;2023-08-07T00:15:41;4.13;;;0.85;;
69401;SDS011;56589;51.992;5.924;2023-08-07T00:18:07;1.40;;;0.57;;
69401;SDS011;56589;51.992;5.924;2023-08-07T00:20:35;2.13;;;0.68;;
69401;SDS011;56589;51.992;5.924;2023-08-07T00:23:01;4.88;;;0.70;;
69401;SDS011;56589;51.992;5.924;2023-08-07T00:25:27;4.85;;;0.65;;
69401;SDS011;56589;51.992;5.924;2023-08-07T00:27:53;4.78;;;0.70;;
69401;SDS011;56589;51.992;5.924;2023-08-07T00:30:19;1.83;;;0.60;;
69401;SDS011;56589;51.992;5.924;2023-08-07T00:32:45;4.22;;;0.77;;
69401;SDS011;56589;51.992;5.924;2023-08-07T00:35:11;2.83;;;0.85;;
69401;SDS011;56589;51.992;5.924;2023-08-07T00:37:39;3.75;;;0.70;;
69401;SDS011;56589;51.992;5.924;2023-08-07T00:40:06;6.07;;;0.85;;
69401;SDS011;56589;51.992;5.924;2023-08-07T00:42:33;2.65;;;0.70;;
69401;SDS011;56589;51.992;5.924;2023-08-07T00:44:59;2.67;;;0.70;;
69401;SDS011;56589;51.992;5.924;2023-08-07T00:47:25;1.73;;;0.80;;
69401;SDS011;56589;51.992;5.924;2023-08-07T00:49:52;3.55;;;0.90;;
69401;SDS011;56589;51.992;5.924;2023-08-07T00:52:18;2.60;;;0.80;;
69401;SDS011;56589;51.992;5.924;2023-08-07T00:54:46;5.95;;;1.02;;
69401;SDS011;56589;51.992;5.924;2023-08-07T00:57:12;4.97;;;0.82;;
69401;SDS011;56589;51.992;5.924;2023-08-07T00:59:40;2.72;;;0.90;;
69401;SDS011;56589;51.992;5.924;2023-08-07T01:02:07;5.93;;;0.90;;
69401;SDS011;56589;51.992;5.924;2023-08-07T01:04:35;6.35;;;1.02;;
69401;SDS011;56589;51.992;5.924;2023-08-07T01:07:01;11.50;;;1.40;;
69401;SDS011;56589;51.992;5.924;2023-08-07T01:09:26;3.17;;;0.93;;
69401;SDS011;56589;51.992;5.924;2023-08-07T01:11:56;5.00;;;1.05;;
69401;SDS011;56589;51.992;5.924;2023-08-07T01:14:36;4.57;;;1.60;;
69401;SDS011;56589;51.992;5.924;2023-08-07T01:17:13;8.20;;;1.33;;
69401;SDS011;56589;51.992;5.924;2023-08-07T01:19:42;5.10;;;1.10;;
69401;SDS011;56589;51.992;5.924;2023-08-07T01:22:12;7.82;;;1.30;;
69401;SDS011;56589;51.992;5.924;2023-08-07T01:24:41;8.77;;;1.10;;
69401;SDS011;56589;51.992;5.924;2023-08-07T01:27:11;6.90;;;1.58;;
69401;SDS011;56589;51.992;5.924;2023-08-07T01:29:54;7.85;;;2.03;;
69401;SDS011;56589;51.992;5.924;2023-08-07T01:32:28;7.60;;;1.65;;
69401;SDS011;56589;51.992;5.924;2023-08-07T01:35:08;14.15;;;1.65;;
69401;SDS011;56589;51.992;5.924;2023-08-07T01:37:42;8.20;;;1.60;;
69401;SDS011;56589;51.992;5.924;2023-08-07T01:40:11;8.60;;;1.38;;
69401;SDS011;56589;51.992;5.924;2023-08-07T01:42:40;10.65;;;2.30;;
69401;SDS011;56589;51.992;5.924;2023-08-07T01:45:08;8.00;;;1.50;;
69401;SDS011;56589;51.992;5.924;2023-08-07T01:47:35;6.97;;;1.35;;
69401;SDS011;56589;51.992;5.924;2023-08-07T01:50:00;14.35;;;1.70;;
69401;SDS011;56589;51.992;5.924;2023-08-07T01:52:26;12.13;;;2.13;;
69401;SDS011;56589;51.992;5.924;2023-08-07T01:54:55;9.00;;;1.63;;
69401;SDS011;56589;51.992;5.924;2023-08-07T01:57:21;19.42;;;1.90;;
69401;SDS011;56589;51.992;5.924;2023-08-07T01:59:47;12.88;;;1.65;;
69401;SDS011;56589;51.992;5.924;2023-08-07T02:02:12;9.07;;;2.30;;
69401;SDS011;56589;51.992;5.924;2023-08-07T02:04:38;14.68;;;1.98;;
69401;SDS011;56589;51.992;5.924;2023-08-07T02:07:04;11.95;;;1.98;;
69401;SDS011;56589;51.992;5.924;2023-08-07T02:09:30;14.23;;;2.88;;
69401;SDS011;56589;51.992;5.924;2023-08-07T02:11:59;12.43;;;2.47;;
69401;SDS011;56589;51.992;5.924;2023-08-07T02:14:24;16.88;;;2.63;;
69401;SDS011;56589;51.992;5.924;2023-08-07T02:16:50;11.02;;;1.95;;
69401;SDS011;56589;51.992;5.924;2023-08-07T02:19:16;17.80;;;3.03;;
69401;SDS011;56589;51.992;5.924;2023-08-07T02:21:42;9.55;;;2.58;;
69401;SDS011;56589;51.992;5.924;2023-08-07T02:24:08;12.60;;;2.00;;
69401;SDS011;56589;51.992;5.924;2023-08-07T02:26:34;15.57;;;2.53;;
69401;SDS011;56589;51.992;5.924;2023-08-07T02:29:02;6.30;;;1.58;;
69401;SDS011;56589;51.992;5.924;2023-08-07T02:31:28;14.77;;;2.70;;
69401;SDS011;56589;51.992;5.924;2023-08-07T02:33:54;11.02;;;2.08;;
69401;SDS011;56589;51.992;5.924;2023-08-07T02:36:20;11.07;;;1.90;;
69401;SDS011;56589;51.992;5.924;2023-08-07T02:38:45;13.45;;;3.10;;
69401;SDS011;56589;51.992;5.924;2023-08-07T02:41:11;12.23;;;2.00;;
69401;SDS011;56589;51.992;5.924;2023-08-07T02:43:37;9.63;;;3.15;;
69401;SDS011;56589;51.992;5.924;2023-08-07T02:46:05;12.60;;;2.05;;
69401;SDS011;56589;51.992;5.924;2023-08-07T02:48:31;13.57;;;2.33;;
69401;SDS011;56589;51.992;5.924;2023-08-07T02:50:57;11.57;;;2.40;;
69401;SDS011;56589;51.992;5.924;2023-08-07T02:53:23;10.02;;;2.17;;
69401;SDS011;56589;51.992;5.924;2023-08-07T02:55:49;9.05;;;2.42;;
69401;SDS011;56589;51.992;5.924;2023-08-07T02:58:14;12.13;;;1.88;;
69401;SDS011;56589;51.992;5.924;2023-08-07T03:00:40;7.53;;;2.17;;
69401;SDS011;56589;51.992;5.924;2023-08-07T03:03:09;8.63;;;2.60;;
69401;SDS011;56589;51.992;5.924;2023-08-07T03:05:35;10.90;;;2.55;;
69401;SDS011;56589;51.992;5.924;2023-08-07T03:08:00;14.65;;;3.08;;
69401;SDS011;56589;51.992;5.924;2023-08-07T03:10:26;12.75;;;2.53;;
69401;SDS011;56589;51.992;5.924;2023-08-07T03:12:52;8.73;;;1.95;;
69401;SDS011;56589;51.992;5.924;2023-08-07T03:15:18;12.15;;;2.75;;
69401;SDS011;56589;51.992;5.924;2023-08-07T03:17:44;9.82;;;2.13;;
69401;SDS011;56589;51.992;5.924;2023-08-07T03:20:13;11.23;;;2.47;;
69401;SDS011;56589;51.992;5.924;2023-08-07T03:22:38;15.05;;;2.45;;
69401;SDS011;56589;51.992;5.924;2023-08-07T03:25:05;13.65;;;2.83;;
69401;SDS011;56589;51.992;5.924;2023-08-07T03:27:31;11.63;;;2.78;;
69401;SDS011;56589;51.992;5.924;2023-08-07T03:29:57;10.73;;;1.88;;
69401;SDS011;56589;51.992;5.924;2023-08-07T03:32:23;11.68;;;2.00;;
69401;SDS011;56589;51.992;5.924;2023-08-07T03:34:49;12.65;;;2.17;;
69401;SDS011;56589;51.992;5.924;2023-08-07T03:37:17;8.30;;;1.70;;
69401;SDS011;56589;51.992;5.924;2023-08-07T03:39:43;8.48;;;2.00;;
69401;SDS011;56589;51.992;5.924;2023-08-07T03:42:09;5.43;;;2.10;;
69401;SDS011;56589;51.992;5.924;2023-08-07T03:44:35;11.63;;;1.92;;
69401;SDS011;56589;51.992;5.924;2023-08-07T03:47:00;11.45;;;2.20;;
69401;SDS011;56589;51.992;5.924;2023-08-07T03:49:26;9.48;;;1.90;;
69401;SDS011;56589;51.992;5.924;2023-08-07T03:51:52;8.77;;;2.00;;
69401;SDS011;56589;51.992;5.924;2023-08-07T03:54:20;14.57;;;1.85;;
69401;SDS011;56589;51.992;5.924;2023-08-07T03:56:46;9.70;;;2.25;;
69401;SDS011;56589;51.992;5.924;2023-08-07T03:59:12;8.30;;;1.90;;
69401;SDS011;56589;51.992;5.924;2023-08-07T04:01:38;6.43;;;1.73;;
69401;SDS011;56589;51.992;5.924;2023-08-07T04:04:04;6.85;;;1.92;;
69401;SDS011;56589;51.992;5.924;2023-08-07T04:06:30;5.95;;;1.63;;
69401;SDS011;56589;51.992;5.924;2023-08-07T04:08:55;5.45;;;1.77;;
69401;SDS011;56589;51.992;5.924;2023-08-07T04:11:24;13.35;;;2.45;;
69401;SDS011;56589;51.992;5.924;2023-08-07T04:13:50;3.15;;;1.42;;
69401;SDS011;56589;51.992;5.924;2023-08-07T04:16:16;13.27;;;1.90;;
69401;SDS011;56589;51.992;5.924;2023-08-07T04:18:42;8.57;;;1.60;;
69401;SDS011;56589;51.992;5.924;2023-08-07T04:21:07;6.93;;;1.90;;
69401;SDS011;56589;51.992;5.924;2023-08-07T04:23:33;7.43;;;1.42;;
69401;SDS011;56589;51.992;5.924;2023-08-07T04:25:59;9.07;;;1.60;;
69401;SDS011;56589;51.992;5.924;2023-08-07T04:28:28;5.85;;;1.55;;
69401;SDS011;56589;51.992;5.924;2023-08-07T04:30:54;7.78;;;1.60;;
69401;SDS011;56589;51.992;5.924;2023-08-07T04:33:20;5.20;;;1.35;;
69401;SDS011;56589;51.992;5.924;2023-08-07T04:35:46;6.55;;;1.35;;
69401;SDS011;56589;51.992;5.924;2023-08-07T04:38:12;6.38;;;1.40;;
69401;SDS011;56589;51.992;5.924;2023-08-07T04:40:43;5.80;;;1.60;;
69401;SDS011;56589;51.992;5.924;2023-08-07T04:43:09;11.02;;;1.58;;
69401;SDS011;56589;51.992;5.924;2023-08-07T04:45:38;7.30;;;1.67;;
69401;SDS011;56589;51.992;5.924;2023-08-07T04:48:04;8.98;;;1.50;;
69401;SDS011;56589;51.992;5.924;2023-08-07T04:50:30;7.97;;;1.50;;
69401;SDS011;56589;51.992;5.924;2023-08-07T04:52:56;9.73;;;2.15;;
69401;SDS011;56589;51.992;5.924;2023-08-07T04:55:21;6.43;;;1.67;;
69401;SDS011;56589;51.992;5.924;2023-08-07T04:57:47;7.05;;;1.30;;
69401;SDS011;56589;51.992;5.924;2023-08-07T05:00:14;6.15;;;1.60;;
69401;SDS011;56589;51.992;5.924;2023-08-07T05:02:44;6.65;;;1.80;;
69401;SDS011;56589;51.992;5.924;2023-08-07T05:05:09;7.80;;;2.13;;
69401;SDS011;56589;51.992;5.924;2023-08-07T05:07:35;13.13;;;1.85;;
69401;SDS011;56589;51.992;5.924;2023-08-07T05:10:01;6.25;;;1.70;;
69401;SDS011;56589;51.992;5.924;2023-08-07T05:12:28;9.25;;;1.77;;
69401;SDS011;56589;51.992;5.924;2023-08-07T05:14:53;8.73;;;1.85;;
69401;SDS011;56589;51.992;5.924;2023-08-07T05:17:19;6.25;;;1.60;;
69401;SDS011;56589;51.992;5.924;2023-08-07T05:19:48;10.07;;;2.05;;
69401;SDS011;56589;51.992;5.924;2023-08-07T05:22:14;13.00;;;2.60;;
69401;SDS011;56589;51.992;5.924;2023-08-07T05:24:40;11.10;;;2.50;;
69401;SDS011;56589;51.992;5.924;2023-08-07T05:27:07;12.20;;;2.15;;
69401;SDS011;56589;51.992;5.924;2023-08-07T05:29:34;11.68;;;2.05;;
69401;SDS011;56589;51.992;5.924;2023-08-07T05:32:00;10.55;;;1.92;;
69401;SDS011;56589;51.992;5.924;2023-08-07T05:34:27;11.18;;;2.15;;
69401;SDS011;56589;51.992;5.924;2023-08-07T05:36:55;12.02;;;2.20;;
69401;SDS011;56589;51.992;5.924;2023-08-07T05:39:21;10.82;;;1.90;;
69401;SDS011;56589;51.992;5.924;2023-08-07T05:41:47;10.65;;;1.92;;
69401;SDS011;56589;51.992;5.924;2023-08-07T05:44:12;11.15;;;1.95;;
69401;SDS011;56589;51.992;5.924;2023-08-07T05:46:38;7.15;;;1.77;;
69401;SDS011;56589;51.992;5.924;2023-08-07T05:49:04;12.90;;;2.20;;
69401;SDS011;56589;51.992;5.924;2023-08-07T05:51:30;9.82;;;2.00;;
69401;SDS011;56589;51.992;5.924;2023-08-07T05:53:58;7.72;;;2.08;;
69401;SDS011;56589;51.992;5.924;2023-08-07T05:56:24;12.40;;;2.83;;
69401;SDS011;56589;51.992;5.924;2023-08-07T05:58:50;9.45;;;2.17;;
69401;SDS011;56589;51.992;5.924;2023-08-07T06:01:15;15.23;;;2.33;;
69401;SDS011;56589;51.992;5.924;2023-08-07T06:03:41;12.50;;;2.35;;
69401;SDS011;56589;51.992;5.924;2023-08-07T06:06:07;11.50;;;2.72;;
69401;SDS011;56589;51.992;5.924;2023-08-07T06:08:33;15.05;;;2.75;;
69401;SDS011;56589;51.992;5.924;2023-08-07T06:11:01;12.43;;;2.75;;
69401;SDS011;56589;51.992;5.924;2023-08-07T06:13:27;7.63;;;2.03;;
69401;SDS011;56589;51.992;5.924;2023-08-07T06:15:53;11.98;;;2.28;;
69401;SDS011;56589;51.992;5.924;2023-08-07T06:18:19;11.23;;;2.10;;
69401;SDS011;56589;51.992;5.924;2023-08-07T06:20:45;8.55;;;1.92;;
69401;SDS011;56589;51.992;5.924;2023-08-07T06:23:11;8.18;;;2.20;;
69401;SDS011;56589;51.992;5.924;2023-08-07T06:25:36;18.33;;;2.63;;
69401;SDS011;56589;51.992;5.924;2023-08-07T06:28:05;13.48;;;2.58;;
69401;SDS011;56589;51.992;5.924;2023-08-07T06:30:31;8.70;;;2.72;;
69401;SDS011;56589;51.992;5.924;2023-08-07T06:32:56;10.82;;;3.13;;
69401;SDS011;56589;51.992;5.924;2023-08-07T06:35:22;12.88;;;2.25;;
69401;SDS011;56589;51.992;5.924;2023-08-07T06:37:48;9.43;;;2.50;;
69401;SDS011;56589;51.992;5.924;2023-08-07T06:40:14;10.40;;;2.80;;
69401;SDS011;56589;51.992;5.924;2023-08-07T06:42:40;15.13;;;2.05;;
69401;SDS011;56589;51.992;5.924;2023-08-07T06:45:09;11.18;;;3.33;;
69401;SDS011;56589;51.992;5.924;2023-08-07T06:47:35;9.50;;;2.20;;
69401;SDS011;56589;51.992;5.924;2023-08-07T06:50:01;12.27;;;2.90;;
69401;SDS011;56589;51.992;5.924;2023-08-07T06:52:27;9.77;;;2.10;;
69401;SDS011;56589;51.992;5.924;2023-08-07T06:54:53;9.02;;;2.70;;
69401;SDS011;56589;51.992;5.924;2023-08-07T06:57:18;10.23;;;2.30;;
69401;SDS011;56589;51.992;5.924;2023-08-07T06:59:44;7.70;;;2.33;;
69401;SDS011;56589;51.992;5.924;2023-08-07T07:02:13;7.22;;;2.05;;
69401;SDS011;56589;51.992;5.924;2023-08-07T07:04:39;11.13;;;2.28;;
69401;SDS011;56589;51.992;5.924;2023-08-07T07:07:05;7.18;;;2.47;;
69401;SDS011;56589;51.992;5.924;2023-08-07T07:09:30;12.30;;;2.83;;
69401;SDS011;56589;51.992;5.924;2023-08-07T07:11:56;12.57;;;2.47;;
69401;SDS011;56589;51.992;5.924;2023-08-07T07:14:23;11.13;;;3.35;;
69401;SDS011;56589;51.992;5.924;2023-08-07T07:16:48;4.20;;;1.85;;
69401;SDS011;56589;51.992;5.924;2023-08-07T07:19:17;8.00;;;1.88;;
69401;SDS011;56589;51.992;5.924;2023-08-07T07:21:43;4.95;;;1.75;;
69401;SDS011;56589;51.992;5.924;2023-08-07T07:24:08;8.93;;;2.08;;
69401;SDS011;56589;51.992;5.924;2023-08-07T07:26:34;6.15;;;2.65;;
69401;SDS011;56589;51.992;5.924;2023-08-07T07:29:00;6.93;;;2.30;;
69401;SDS011;56589;51.992;5.924;2023-08-07T07:31:26;7.88;;;2.40;;
69401;SDS011;56589;51.992;5.924;2023-08-07T07:33:52;9.05;;;1.73;;
69401;SDS011;56589;51.992;5.924;2023-08-07T07:36:20;8.10;;;1.65;;
69401;SDS011;56589;51.992;5.924;2023-08-07T07:38:46;12.38;;;2.03;;
69401;SDS011;56589;51.992;5.924;2023-08-07T07:41:12;8.27;;;2.22;;
69401;SDS011;56589;51.992;5.924;2023-08-07T07:43:38;8.60;;;2.20;;
69401;SDS011;56589;51.992;5.924;2023-08-07T07:46:04;10.48;;;2.65;;
69401;SDS011;56589;51.992;5.924;2023-08-07T07:48:29;8.95;;;1.90;;
69401;SDS011;56589;51.992;5.924;2023-08-07T07:50:57;9.23;;;2.30;;
69401;SDS011;56589;51.992;5.924;2023-08-07T07:53:26;10.25;;;2.33;;
69401;SDS011;56589;51.992;5.924;2023-08-07T07:55:52;8.48;;;2.42;;
69401;SDS011;56589;51.992;5.924;2023-08-07T07:58:18;6.03;;;1.92;;
69401;SDS011;56589;51.992;5.924;2023-08-07T08:00:44;11.60;;;2.25;;
69401;SDS011;56589;51.992;5.924;2023-08-07T08:03:10;14.27;;;2.67;;
69401;SDS011;56589;51.992;5.924;2023-08-07T08:05:36;6.53;;;1.90;;
69401;SDS011;56589;51.992;5.924;2023-08-07T08:08:02;9.23;;;2.53;;
69401;SDS011;56589;51.992;5.924;2023-08-07T08:10:31;9.90;;;2.47;;
69401;SDS011;56589;51.992;5.924;2023-08-07T08:12:56;8.40;;;2.53;;
69401;SDS011;56589;51.992;5.924;2023-08-07T08:15:22;11.05;;;3.05;;
69401;SDS011;56589;51.992;5.924;2023-08-07T08:17:48;9.15;;;1.92;;
69401;SDS011;56589;51.992;5.924;2023-08-07T08:20:14;6.50;;;1.67;;
69401;SDS011;56589;51.992;5.924;2023-08-07T08:22:40;10.45;;;2.35;;
69401;SDS011;56589;51.992;5.924;2023-08-07T08:25:06;8.82;;;2.20;;
69401;SDS011;56589;51.992;5.924;2023-08-07T08:27:35;10.35;;;2.15;;
69401;SDS011;56589;51.992;5.924;2023-08-07T08:30:02;7.18;;;2.47;;
69401;SDS011;56589;51.992;5.924;2023-08-07T08:32:30;7.88;;;2.05;;
69401;SDS011;56589;51.992;5.924;2023-08-07T08:34:56;10.07;;;2.40;;
69401;SDS011;56589;51.992;5.924;2023-08-07T08:37:22;10.55;;;1.88;;
69401;SDS011;56589;51.992;5.924;2023-08-07T08:39:48;10.68;;;2.30;;
69401;SDS011;56589;51.992;5.924;2023-08-07T08:42:14;11.63;;;2.05;;
69401;SDS011;56589;51.992;5.924;2023-08-07T08:44:43;7.00;;;1.65;;
69401;SDS011;56589;51.992;5.924;2023-08-07T08:47:16;10.43;;;2.05;;
69401;SDS011;56589;51.992;5.924;2023-08-07T08:49:46;5.28;;;1.70;;
69401;SDS011;56589;51.992;5.924;2023-08-07T08:54:43;6.10;;;1.90;;
69401;SDS011;56589;51.992;5.924;2023-08-07T08:57:09;7.20;;;2.72;;
69401;SDS011;56589;51.992;5.924;2023-08-07T08:59:37;9.57;;;2.33;;
69401;SDS011;56589;51.992;5.924;2023-08-07T09:02:08;10.15;;;2.67;;
69401;SDS011;56589;51.992;5.924;2023-08-07T09:04:34;12.60;;;2.33;;
69401;SDS011;56589;51.992;5.924;2023-08-07T09:07:00;9.02;;;2.33;;
69401;SDS011;56589;51.992;5.924;2023-08-07T09:09:26;17.85;;;3.13;;
69401;SDS011;56589;51.992;5.924;2023-08-07T09:11:53;8.60;;;2.55;;
69401;SDS011;56589;51.992;5.924;2023-08-07T09:14:24;11.05;;;2.80;;
69401;SDS011;56589;51.992;5.924;2023-08-07T09:16:56;15.80;;;2.58;;
69401;SDS011;56589;51.992;5.924;2023-08-07T09:19:28;11.48;;;2.22;;
69401;SDS011;56589;51.992;5.924;2023-08-07T09:21:55;12.25;;;2.75;;
69401;SDS011;56589;51.992;5.924;2023-08-07T09:24:22;13.70;;;2.67;;
69401;SDS011;56589;51.992;5.924;2023-08-07T09:26:50;7.63;;;1.83;;
69401;SDS011;56589;51.992;5.924;2023-08-07T09:29:18;8.98;;;2.03;;
69401;SDS011;56589;51.992;5.924;2023-08-07T09:31:47;7.43;;;1.90;;
69401;SDS011;56589;51.992;5.924;2023-08-07T09:34:14;6.05;;;1.83;;
69401;SDS011;56589;51.992;5.924;2023-08-07T09:36:48;8.85;;;2.15;;
69401;SDS011;56589;51.992;5.924;2023-08-07T09:39:14;8.90;;;1.60;;
69401;SDS011;56589;51.992;5.924;2023-08-07T09:41:39;8.07;;;2.50;;
69401;SDS011;56589;51.992;5.924;2023-08-07T09:44:06;7.75;;;2.00;;
69401;SDS011;56589;51.992;5.924;2023-08-07T09:46:33;6.05;;;1.83;;
69401;SDS011;56589;51.992;5.924;2023-08-07T09:49:07;9.48;;;1.70;;
69401;SDS011;56589;51.992;5.924;2023-08-07T09:51:38;5.65;;;1.77;;
69401;SDS011;56589;51.992;5.924;2023-08-07T09:54:09;8.48;;;1.77;;
69401;SDS011;56589;51.992;5.924;2023-08-07T09:56:36;5.45;;;1.70;;
69401;SDS011;56589;51.992;5.924;2023-08-07T09:59:03;8.05;;;1.73;;
69401;SDS011;56589;51.992;5.924;2023-08-07T10:01:29;8.05;;;1.45;;
69401;SDS011;56589;51.992;5.924;2023-08-07T10:03:55;11.30;;;2.00;;
69401;SDS011;56589;51.992;5.924;2023-08-07T10:06:22;9.05;;;2.17;;
69401;SDS011;56589;51.992;5.924;2023-08-07T10:08:48;5.57;;;1.38;;
69401;SDS011;56589;51.992;5.924;2023-08-07T10:11:18;5.80;;;1.92;;
69401;SDS011;56589;51.992;5.924;2023-08-07T10:13:46;8.75;;;1.77;;
69401;SDS011;56589;51.992;5.924;2023-08-07T10:16:13;8.10;;;1.50;;
69401;SDS011;56589;51.992;5.924;2023-08-07T10:18:39;7.88;;;1.73;;
69401;SDS011;56589;51.992;5.924;2023-08-07T10:21:05;7.53;;;1.60;;
69401;SDS011;56589;51.992;5.924;2023-08-07T10:23:32;8.30;;;2.05;;
69401;SDS011;56589;51.992;5.924;2023-08-07T10:26:01;7.82;;;2.00;;
69401;SDS011;56589;51.992;5.924;2023-08-07T10:28:32;6.38;;;1.73;;
69401;SDS011;56589;51.992;5.924;2023-08-07T10:31:02;8.50;;;1.50;;
69401;SDS011;56589;51.992;5.924;2023-08-07T10:33:27;9.00;;;1.88;;
69401;SDS011;56589;51.992;5.924;2023-08-07T10:35:54;8.23;;;1.83;;
69401;SDS011;56589;51.992;5.924;2023-08-07T10:38:23;7.45;;;1.60;;
69401;SDS011;56589;51.992;5.924;2023-08-07T10:40:58;5.97;;;1.35;;
69401;SDS011;56589;51.992;5.924;2023-08-07T10:43:26;7.72;;;1.77;;
69401;SDS011;56589;51.992;5.924;2023-08-07T10:45:55;6.20;;;1.70;;
69401;SDS011;56589;51.992;5.924;2023-08-07T10:48:28;7.07;;;1.75;;
69401;SDS011;56589;51.992;5.924;2023-08-07T10:50:55;6.28;;;1.80;;
69401;SDS011;56589;51.992;5.924;2023-08-07T10:53:28;9.05;;;1.75;;
69401;SDS011;56589;51.992;5.924;2023-08-07T10:55:56;4.40;;;1.42;;
69401;SDS011;56589;51.992;5.924;2023-08-07T10:58:22;9.40;;;1.63;;
69401;SDS011;56589;51.992;5.924;2023-08-07T11:00:50;9.85;;;2.10;;
69401;SDS011;56589;51.992;5.924;2023-08-07T11:03:25;8.40;;;1.73;;
69401;SDS011;56589;51.992;5.924;2023-08-07T11:05:52;9.77;;;1.80;;
69401;SDS011;56589;51.992;5.924;2023-08-07T11:08:21;7.60;;;1.75;;
69401;SDS011;56589;51.992;5.924;2023-08-07T11:10:47;9.20;;;1.50;;
69401;SDS011;56589;51.992;5.924;2023-08-07T11:13:13;5.00;;;1.30;;
69401;SDS011;56589;51.992;5.924;2023-08-07T11:15:39;6.80;;;1.85;;
69401;SDS011;56589;51.992;5.924;2023-08-07T11:18:05;7.30;;;1.80;;
69401;SDS011;56589;51.992;5.924;2023-08-07T11:20:34;8.82;;;1.73;;
69401;SDS011;56589;51.992;5.924;2023-08-07T11:23:00;4.43;;;1.38;;
69401;SDS011;56589;51.992;5.924;2023-08-07T11:25:26;3.63;;;1.02;;
69401;SDS011;56589;51.992;5.924;2023-08-07T11:27:52;6.15;;;2.00;;
69401;SDS011;56589;51.992;5.924;2023-08-07T11:30:19;4.00;;;1.42;;
69401;SDS011;56589;51.992;5.924;2023-08-07T11:32:45;5.45;;;1.45;;
69401;SDS011;56589;51.992;5.924;2023-08-07T11:35:11;4.93;;;1.85;;
69401;SDS011;56589;51.992;5.924;2023-08-07T11:37:39;6.15;;;1.40;;
69401;SDS011;56589;51.992;5.924;2023-08-07T11:40:11;7.07;;;1.88;;
69401;SDS011;56589;51.992;5.924;2023-08-07T11:42:37;6.82;;;1.52;;
69401;SDS011;56589;51.992;5.924;2023-08-07T11:45:03;8.40;;;1.60;;
69401;SDS011;56589;51.992;5.924;2023-08-07T11:47:30;6.00;;;1.33;;
69401;SDS011;56589;51.992;5.924;2023-08-07T11:49:56;5.97;;;1.83;;
69401;SDS011;56589;51.992;5.924;2023-08-07T11:52:24;7.20;;;2.38;;
69401;SDS011;56589;51.992;5.924;2023-08-07T11:54:52;10.88;;;2.00;;
69401;SDS011;56589;51.992;5.924;2023-08-07T11:57:19;5.88;;;1.80;;
69401;SDS011;56589;51.992;5.924;2023-08-07T11:59:52;7.65;;;1.70;;
69401;SDS011;56589;51.992;5.924;2023-08-07T12:02:21;7.00;;;1.57;;
69401;SDS011;56589;51.992;5.924;2023-08-07T12:04:49;5.85;;;1.35;;
69401;SDS011;56589;51.992;5.924;2023-08-07T12:07:16;6.57;;;1.60;;
69401;SDS011;56589;51.992;5.924;2023-08-07T12:09:43;7.75;;;2.03;;
69401;SDS011;56589;51.992;5.924;2023-08-07T12:12:11;10.05;;;1.98;;
69401;SDS011;56589;51.992;5.924;2023-08-07T12:14:38;9.63;;;1.83;;
69401;SDS011;56589;51.992;5.924;2023-08-07T12:17:04;7.90;;;1.60;;
69401;SDS011;56589;51.992;5.924;2023-08-07T12:19:36;5.30;;;1.55;;
69401;SDS011;56589;51.992;5.924;2023-08-07T12:22:05;7.03;;;1.75;;
69401;SDS011;56589;51.992;5.924;2023-08-07T12:24:32;6.78;;;1.65;;
69401;SDS011;56589;51.992;5.924;2023-08-07T12:26:59;8.30;;;1.40;;
69401;SDS011;56589;51.992;5.924;2023-08-07T12:29:28;6.07;;;1.38;;
69401;SDS011;56589;51.992;5.924;2023-08-07T12:31:53;3.28;;;1.10;;
69401;SDS011;56589;51.992;5.924;2023-08-07T12:34:19;4.47;;;1.65;;
69401;SDS011;56589;51.992;5.924;2023-08-07T12:36:45;5.60;;;1.55;;
69401;SDS011;56589;51.992;5.924;2023-08-07T12:39:11;8.85;;;1.50;;
69401;SDS011;56589;51.992;5.924;2023-08-07T12:41:37;6.78;;;1.58;;
69401;SDS011;56589;51.992;5.924;2023-08-07T12:44:03;5.47;;;1.40;;
69401;SDS011;56589;51.992;5.924;2023-08-07T12:46:32;8.85;;;1.85;;
69401;SDS011;56589;51.992;5.924;2023-08-07T12:48:58;4.22;;;1.65;;
69401;SDS011;56589;51.992;5.924;2023-08-07T12:51:23;8.02;;;2.00;;
69401;SDS011;56589;51.992;5.924;2023-08-07T12:53:49;8.00;;;1.67;;
69401;SDS011;56589;51.992;5.924;2023-08-07T12:56:15;5.28;;;1.20;;
69401;SDS011;56589;51.992;5.924;2023-08-07T12:58:41;5.28;;;1.40;;
69401;SDS011;56589;51.992;5.924;2023-08-07T13:01:07;5.25;;;1.27;;
69401;SDS011;56589;51.992;5.924;2023-08-07T13:03:36;6.40;;;1.27;;
69401;SDS011;56589;51.992;5.924;2023-08-07T13:06:02;4.35;;;1.27;;
69401;SDS011;56589;51.992;5.924;2023-08-07T13:08:28;4.32;;;1.45;;
69401;SDS011;56589;51.992;5.924;2023-08-07T13:10:54;2.92;;;1.05;;
69401;SDS011;56589;51.992;5.924;2023-08-07T13:13:20;5.18;;;1.40;;
69401;SDS011;56589;51.992;5.924;2023-08-07T13:15:45;5.22;;;1.33;;
69401;SDS011;56589;51.992;5.924;2023-08-07T13:18:11;5.53;;;1.70;;
69401;SDS011;56589;51.992;5.924;2023-08-07T13:20:39;6.10;;;1.67;;
69401;SDS011;56589;51.992;5.924;2023-08-07T13:23:05;5.68;;;1.30;;
69401;SDS011;56589;51.992;5.924;2023-08-07T13:25:31;5.00;;;1.45;;
69401;SDS011;56589;51.992;5.924;2023-08-07T13:27:57;4.30;;;1.40;;
69401;SDS011;56589;51.992;5.924;2023-08-07T13:30:23;5.88;;;1.52;;
69401;SDS011;56589;51.992;5.924;2023-08-07T13:32:49;7.30;;;1.70;;
69401;SDS011;56589;51.992;5.924;2023-08-07T13:35:14;6.60;;;1.25;;
69401;SDS011;56589;51.992;5.924;2023-08-07T13:37:43;6.65;;;1.55;;
69401;SDS011;56589;51.992;5.924;2023-08-07T13:40:09;5.95;;;1.40;;
69401;SDS011;56589;51.992;5.924;2023-08-07T13:42:35;5.38;;;1.88;;
69401;SDS011;56589;51.992;5.924;2023-08-07T13:45:01;3.67;;;1.38;;
69401;SDS011;56589;51.992;5.924;2023-08-07T13:47:30;5.20;;;1.20;;
69401;SDS011;56589;51.992;5.924;2023-08-07T13:49:55;3.85;;;1.17;;
69401;SDS011;56589;51.992;5.924;2023-08-07T13:52:21;3.65;;;1.05;;
69401;SDS011;56589;51.992;5.924;2023-08-07T13:54:50;3.30;;;1.17;;
69401;SDS011;56589;51.992;5.924;2023-08-07T13:57:16;5.20;;;1.15;;
69401;SDS011;56589;51.992;5.924;2023-08-07T13:59:42;6.05;;;1.67;;
69401;SDS011;56589;51.992;5.924;2023-08-07T14:02:09;3.60;;;1.23;;
69401;SDS011;56589;51.992;5.924;2023-08-07T14:04:37;6.13;;;1.50;;
69401;SDS011;56589;51.992;5.924;2023-08-07T14:07:03;5.45;;;1.25;;
69401;SDS011;56589;51.992;5.924;2023-08-07T14:09:31;5.15;;;1.10;;
69401;SDS011;56589;51.992;5.924;2023-08-07T14:11:59;5.20;;;1.25;;
69401;SDS011;56589;51.992;5.924;2023-08-07T14:14:25;5.85;;;1.63;;
69401;SDS011;56589;51.992;5.924;2023-08-07T14:16:51;4.70;;;1.45;;
69401;SDS011;56589;51.992;5.924;2023-08-07T14:19:18;3.10;;;1.10;;
69401;SDS011;56589;51.992;5.924;2023-08-07T14:21:47;3.17;;;1.17;;
69401;SDS011;56589;51.992;5.924;2023-08-07T14:24:13;4.72;;;1.40;;
69401;SDS011;56589;51.992;5.924;2023-08-07T14:26:38;2.40;;;1.20;;
69401;SDS011;56589;51.992;5.924;2023-08-07T14:29:07;2.30;;;1.20;;
69401;SDS011;56589;51.992;5.924;2023-08-07T14:31:33;2.65;;;0.95;;
69401;SDS011;56589;51.992;5.924;2023-08-07T14:33:58;5.35;;;0.85;;
69401;SDS011;56589;51.992;5.924;2023-08-07T14:36:24;2.25;;;0.85;;
69401;SDS011;56589;51.992;5.924;2023-08-07T14:38:50;4.68;;;1.17;;
69401;SDS011;56589;51.992;5.924;2023-08-07T14:41:17;4.55;;;0.90;;
69401;SDS011;56589;51.992;5.924;2023-08-07T14:43:43;2.17;;;1.10;;